createdAt,value
2023-02-02T00:04:27.540Z,98151.53
2023-02-02T00:09:35.342Z,98146.36
2023-02-02T00:14:44.407Z,98150.05
2023-02-02T00:19:51.619Z,98153.64
2023-02-02T00:24:57.260Z,98153.88
2023-02-02T00:30:05.671Z,98152.54
2023-02-02T00:35:14.585Z,98159.95
2023-02-02T00:40:22.459Z,98164.25
2023-02-02T00:45:29.855Z,98163.64
2023-02-02T00:50:37.340Z,98163.11
2023-02-02T00:55:45.475Z,98172.55
2023-02-02T01:00:53.242Z,98175.13
2023-02-02T01:06:01.301Z,98182.59
2023-02-02T01:11:09.170Z,98183.06
2023-02-02T01:16:16.469Z,98180.45
2023-02-02T01:21:22.599Z,98180.89
2023-02-02T01:26:29.752Z,98189.09
2023-02-02T01:31:37.836Z,98191.10
2023-02-02T01:36:46.340Z,98193.35
2023-02-02T01:41:54.362Z,98198.00
2023-02-02T01:47:01.590Z,98200.91
2023-02-02T01:52:07.625Z,98205.92
2023-02-02T01:57:24.002Z,98206.48
2023-02-02T02:02:33.544Z,98211.88
2023-02-02T02:07:44.712Z,98213.20
2023-02-02T02:12:53.224Z,98216.09
2023-02-02T02:18:10.877Z,98221.91
2023-02-02T02:24:15.447Z,98234.21
2023-02-02T02:29:43.220Z,98240.86
2023-02-02T02:35:00.167Z,98247.82
2023-02-02T02:40:15.121Z,98252.14
2023-02-02T02:45:23.579Z,98255.01
2023-02-02T02:50:31.078Z,98260.19
2023-02-02T02:55:41.894Z,98267.10
2023-02-02T03:01:00.591Z,98273.33
2023-02-02T03:06:14.098Z,98272.80
2023-02-02T03:11:21.558Z,98278.26
2023-02-02T03:16:28.770Z,98279.28
2023-02-02T03:21:35.431Z,98275.72
2023-02-02T03:26:43.061Z,98284.73
2023-02-02T03:31:50.675Z,98291.63
2023-02-02T03:36:58.146Z,98293.20
2023-02-02T03:42:05.838Z,98296.38
2023-02-02T03:47:13.209Z,98302.61
2023-02-02T03:52:20.608Z,98302.57
2023-02-02T03:57:28.081Z,98303.21
2023-02-02T04:02:35.715Z,98298.20
2023-02-02T04:07:44.784Z,98302.44
2023-02-02T04:12:52.889Z,98303.27
2023-02-02T04:18:00.261Z,98305.63
2023-02-02T04:23:07.785Z,98302.43
2023-02-02T04:28:15.031Z,98301.28
2023-02-02T04:33:22.682Z,98298.76
2023-02-02T04:38:29.900Z,98309.42
2023-02-02T04:43:39.061Z,98306.14
2023-02-02T04:48:49.198Z,98310.09
2023-02-02T04:53:57.642Z,98307.20
2023-02-02T04:59:05.861Z,98310.89
2023-02-02T05:04:14.135Z,98304.81
2023-02-02T05:09:22.090Z,98311.15
2023-02-02T05:14:29.697Z,98310.34
2023-02-02T05:19:36.823Z,98315.77
2023-02-02T05:24:44.305Z,98312.70
2023-02-02T05:29:51.468Z,98314.93
2023-02-02T05:34:57.102Z,98313.99
2023-02-02T05:40:04.675Z,98315.77
2023-02-02T05:45:14.586Z,98316.33
2023-02-02T05:50:22.255Z,98318.55
2023-02-02T05:55:29.774Z,98321.05
2023-02-02T06:00:37.129Z,98323.70
2023-02-02T06:05:45.069Z,98318.46
2023-02-02T06:10:53.332Z,98311.20
2023-02-02T06:16:01.048Z,98304.40
2023-02-02T06:21:10.103Z,98301.91
2023-02-02T06:26:19.244Z,98297.72
2023-02-02T06:31:26.698Z,98303.73
2023-02-02T06:36:34.825Z,98299.75
2023-02-02T06:41:40.899Z,98294.85
2023-02-02T06:46:49.373Z,98293.30
2023-02-02T06:51:57.043Z,98294.38
2023-02-02T06:57:04.467Z,98295.08
2023-02-02T07:02:14.546Z,98306.30
2023-02-02T07:07:21.819Z,98302.58
2023-02-02T07:12:30.153Z,98308.13
2023-02-02T07:17:37.744Z,98302.84
2023-02-02T07:22:45.375Z,98308.96
2023-02-02T07:27:55.693Z,98318.23
2023-02-02T07:33:02.908Z,98322.69
2023-02-02T07:38:10.431Z,98318.41
2023-02-02T07:43:19.683Z,98319.64
2023-02-02T07:48:29.593Z,98320.36
2023-02-02T07:53:37.627Z,98317.59
2023-02-02T07:58:45.790Z,98310.82
2023-02-02T08:03:53.828Z,98300.66
2023-02-02T08:09:02.039Z,98301.34
2023-02-02T08:14:09.236Z,98293.18
2023-02-02T08:19:15.788Z,98292.67
2023-02-02T08:24:23.259Z,98285.20
2023-02-02T08:29:30.427Z,98288.39
2023-02-02T08:34:37.332Z,98288.44
2023-02-02T08:39:44.913Z,98278.59
2023-02-02T08:45:59.858Z,98276.55
2023-02-02T08:50:18.738Z,98276.61
2023-02-02T08:55:26.461Z,98269.63
2023-02-02T09:00:33.934Z,98276.30
2023-02-02T09:05:41.717Z,98274.33
2023-02-02T09:10:49.090Z,98270.66
2023-02-02T09:16:00.134Z,98269.02
2023-02-02T09:21:10.239Z,98267.50
2023-02-02T09:26:19.670Z,98279.41
2023-02-02T09:31:27.699Z,98277.25
2023-02-02T09:36:35.660Z,98282.05
2023-02-02T09:42:17.556Z,98284.67
2023-02-02T09:47:35.009Z,98277.12
2023-02-02T09:52:46.124Z,98285.23
2023-02-02T09:57:57.538Z,98295.48
2023-02-02T10:03:12.458Z,98302.41
2023-02-02T10:08:34.704Z,98308.11
2023-02-02T10:13:45.217Z,98313.80
2023-02-02T10:18:57.633Z,98318.60
2023-02-02T10:24:06.339Z,98319.81
2023-02-02T10:29:19.796Z,98329.88
2023-02-02T10:34:33.170Z,98328.80
2023-02-02T10:40:04.605Z,98326.78
2023-02-02T10:45:17.278Z,98331.83
2023-02-02T10:50:26.177Z,98335.06
2023-02-02T10:55:44.037Z,98343.88
2023-02-02T11:00:55.004Z,98345.98
2023-02-02T11:06:22.405Z,98351.06
2023-02-02T11:11:35.754Z,98350.29
2023-02-02T11:16:44.764Z,98359.72
2023-02-02T11:21:54.392Z,98362.48
2023-02-02T11:27:04.672Z,98374.11
2023-02-02T11:32:31.273Z,98370.45
2023-02-02T11:37:39.941Z,98371.38
2023-02-02T11:42:49.660Z,98372.10
2023-02-02T11:48:01.987Z,98379.36
2023-02-02T11:53:21.441Z,98383.63
2023-02-02T11:58:30.837Z,98382.67
2023-02-02T12:03:40.802Z,98382.17
2023-02-02T12:08:48.918Z,98389.82
2023-02-02T12:14:12.927Z,98396.61
2023-02-02T12:19:52.884Z,98406.79
2023-02-02T12:25:09.535Z,98418.92
2023-02-02T12:30:30.259Z,98435.77
2023-02-02T12:35:57.824Z,98443.31
2023-02-02T12:41:24.896Z,98451.52
2023-02-02T12:46:51.653Z,98462.70
2023-02-02T12:52:14.098Z,98478.16
2023-02-02T12:57:32.238Z,98491.42
2023-02-02T13:02:50.797Z,98499.14
2023-02-02T13:08:03.228Z,98507.87
2023-02-02T13:13:18.196Z,98517.91
2023-02-02T13:18:30.218Z,98522.75
2023-02-02T13:23:42.937Z,98523.98
2023-02-02T13:28:56.686Z,98542.22
2023-02-02T13:34:16.651Z,98557.61
2023-02-02T13:39:31.268Z,98561.05
2023-02-02T13:44:44.048Z,98566.47
2023-02-02T13:49:55.285Z,98579.84
2023-02-02T13:55:37.723Z,98580.08
2023-02-02T14:00:50.560Z,98592.86
2023-02-02T14:06:13.485Z,98609.50
2023-02-02T14:11:25.431Z,98613.62
2023-02-02T14:16:47.662Z,98626.92
2023-02-02T14:22:19.359Z,98628.98
2023-02-02T14:27:56.847Z,98635.90
2023-02-02T14:33:28.433Z,98640.00
2023-02-02T14:39:01.782Z,98649.08
2023-02-02T14:44:10.061Z,98672.41
2023-02-02T14:49:26.071Z,98685.53
2023-02-02T14:54:39.880Z,98696.50
2023-02-02T14:59:49.955Z,98701.70
2023-02-02T15:05:39.215Z,98714.19
2023-02-02T15:11:30.724Z,98725.41
2023-02-02T15:16:41.625Z,98737.32
2023-02-02T15:21:51.091Z,98749.20
2023-02-02T15:27:00.206Z,98759.06
2023-02-02T15:32:15.192Z,98764.73
2023-02-02T15:37:27.315Z,98779.73
2023-02-02T15:42:55.484Z,98788.08
2023-02-02T15:48:08.124Z,98801.40
2023-02-02T15:53:22.789Z,98811.27
2023-02-02T15:58:33.595Z,98823.30
2023-02-02T16:03:51.702Z,98831.17
2023-02-02T16:08:59.234Z,98845.86
2023-02-02T16:14:10.795Z,98857.52
2023-02-02T16:19:22.278Z,98863.33
2023-02-02T16:24:33.044Z,98874.64
2023-02-02T16:29:42.849Z,98889.23
2023-02-02T16:34:50.593Z,98909.15
2023-02-02T16:40:15.303Z,98920.27
2023-02-02T16:45:47.025Z,98925.34
2023-02-02T16:51:07.002Z,98931.82
2023-02-02T16:56:28.193Z,98952.67
2023-02-02T17:01:40.650Z,98973.82
2023-02-02T17:06:53.223Z,98977.61
2023-02-02T17:12:04.169Z,98987.70
2023-02-02T17:17:13.312Z,98983.50
2023-02-02T17:22:24.477Z,98989.31
2023-02-02T17:27:35.982Z,99004.92
2023-02-02T17:32:43.872Z,99013.39
2023-02-02T17:37:53.783Z,99023.38
2023-02-02T17:43:02.432Z,99034.08
2023-02-02T17:48:14.555Z,99038.52
2023-02-02T17:53:23.592Z,99057.67
2023-02-02T17:58:30.762Z,99064.53
2023-02-02T18:03:38.475Z,99070.29
2023-02-02T18:08:46.157Z,99075.58
2023-02-02T18:13:54.217Z,99079.79
2023-02-02T18:19:03.356Z,99088.63
2023-02-02T18:24:15.255Z,99101.42
2023-02-02T18:29:22.455Z,99099.73
2023-02-02T18:34:33.712Z,99103.90
2023-02-02T18:39:41.804Z,99113.80
2023-02-02T18:44:49.182Z,99127.33
2023-02-02T18:49:58.905Z,99136.95
2023-02-02T18:55:07.076Z,99152.41
2023-02-02T19:00:16.961Z,99164.98
2023-02-02T19:05:42.130Z,99180.91
2023-02-02T19:10:49.629Z,99190.55
2023-02-02T19:15:58.595Z,99194.03
2023-02-02T19:21:12.894Z,99196.67
2023-02-02T19:26:25.622Z,99204.70
2023-02-02T19:31:34.109Z,99216.73
2023-02-02T19:36:46.437Z,99229.78
2023-02-02T19:41:58.040Z,99236.40
2023-02-02T19:47:18.849Z,99237.16
2023-02-02T19:52:28.267Z,99249.58
2023-02-02T19:57:41.035Z,99262.67
2023-02-02T20:02:58.533Z,99270.70
2023-02-02T20:08:10.108Z,99272.64
2023-02-02T20:13:23.016Z,99287.23
2023-02-02T20:18:41.531Z,99300.23
2023-02-02T20:23:49.995Z,99308.31
2023-02-02T20:29:00.057Z,99309.90
2023-02-02T20:34:23.999Z,99319.30
2023-02-02T20:39:36.495Z,99326.61
2023-02-02T20:44:44.064Z,99340.30
2023-02-02T20:49:51.617Z,99350.37
2023-02-02T20:54:58.997Z,99363.30
2023-02-02T21:00:07.625Z,99374.12
2023-02-02T21:05:15.242Z,99377.31
2023-02-02T21:10:23.083Z,99382.30
2023-02-02T21:15:30.711Z,99387.80
2023-02-02T21:20:38.502Z,99403.59
2023-02-02T21:25:46.411Z,99408.95
2023-02-02T21:30:53.871Z,99417.13
2023-02-02T21:36:05.104Z,99417.64
2023-02-02T21:41:17.082Z,99420.42
2023-02-02T21:46:30.635Z,99425.36
2023-02-02T21:51:39.194Z,99427.35
2023-02-02T21:56:48.817Z,99434.03
2023-02-02T22:01:56.966Z,99447.80
2023-02-02T22:07:13.402Z,99458.55
2023-02-02T22:12:23.447Z,99466.63
2023-02-02T22:17:39.888Z,99478.17
2023-02-02T22:22:49.629Z,99490.64
2023-02-02T22:27:58.802Z,99494.98
2023-02-02T22:33:08.054Z,99502.79
2023-02-02T22:38:19.567Z,99507.67
2023-02-02T22:43:26.784Z,99499.91
2023-02-02T22:48:32.199Z,99503.11
2023-02-02T22:53:39.687Z,99516.26
2023-02-02T22:58:47.699Z,99528.04
2023-02-02T23:03:55.047Z,99533.66
2023-02-02T23:09:02.239Z,99539.85
2023-02-02T23:14:07.798Z,99541.92
2023-02-02T23:19:14.956Z,99546.13
2023-02-02T23:24:20.425Z,99546.39
2023-02-02T23:29:27.926Z,99551.02
2023-02-02T23:34:35.143Z,99562.42
2023-02-02T23:39:40.790Z,99563.88
2023-02-02T23:44:48.269Z,99567.59
2023-02-02T23:49:55.712Z,99565.84
2023-02-02T23:55:04.947Z,99579.19
